Time;durP1;ratioP1;P1;durP2;ratioP2;P2;SDS_P1;SDS_P2;PMS_P1;PMS_P2;Temp;Humidity;BMP_temperature;BMP_pressure;BME280_temperature;BME280_humidity;BME280_pressure;Samples;Min_cycle;Max_cycle;Signal;HPM_P1;HPM_P2
2024/01/21 00:01:55;;;;;;;11.80;7.13;;;0.80;99.90;;;;;;5094904;28;20396;-79
2024/01/21 00:04:21;;;;;;;12.43;7.17;;;0.80;99.90;;;;;;5095248;28;20505;-79
2024/01/21 00:06:47;;;;;;;12.57;6.93;;;0.80;99.90;;;;;;5096015;28;20413;-79
2024/01/21 00:09:12;;;;;;;11.73;6.67;;;0.80;99.90;;;;;;5095711;28;20044;-78
2024/01/21 00:11:38;;;;;;;12.47;6.77;;;0.80;99.90;;;;;;5096135;28;20060;-79
2024/01/21 00:14:04;;;;;;;12.47;7.17;;;0.70;99.90;;;;;;5095821;28;20085;-79
2024/01/21 00:16:30;;;;;;;14.82;7.60;;;0.70;99.90;;;;;;5095871;28;20050;-79
2024/01/21 00:18:56;;;;;;;12.33;7.13;;;0.70;99.90;;;;;;5095710;28;20048;-79
2024/01/21 00:21:21;;;;;;;14.07;7.97;;;0.70;99.90;;;;;;5095467;28;20051;-79
2024/01/21 00:23:47;;;;;;;12.77;8.03;;;0.70;99.90;;;;;;5095570;28;20039;-79
2024/01/21 00:26:13;;;;;;;12.93;8.53;;;0.60;99.90;;;;;;5095387;28;20055;-78
2024/01/21 00:28:39;;;;;;;15.23;8.03;;;0.60;99.90;;;;;;5095525;28;20044;-78
2024/01/21 00:31:05;;;;;;;14.63;8.20;;;0.60;99.90;;;;;;5095509;28;20040;-79
2024/01/21 00:33:30;;;;;;;12.77;8.20;;;0.60;99.90;;;;;;5094135;28;20092;-78
2024/01/21 00:35:56;;;;;;;11.67;7.50;;;0.60;99.90;;;;;;5095549;28;20091;-79
2024/01/21 00:38:22;;;;;;;16.07;9.40;;;0.60;99.90;;;;;;5095121;28;20040;-79
2024/01/21 00:40:48;;;;;;;15.00;8.07;;;0.60;99.90;;;;;;5095422;28;20044;-79
2024/01/21 00:43:14;;;;;;;13.55;8.60;;;0.60;99.90;;;;;;5094808;28;20520;-78
2024/01/21 00:45:40;;;;;;;12.27;8.07;;;0.60;99.90;;;;;;5095127;28;20036;-79
2024/01/21 00:48:06;;;;;;;14.02;8.75;;;0.60;99.90;;;;;;5095139;28;20059;-79
2024/01/21 00:50:32;;;;;;;12.93;7.60;;;0.60;99.90;;;;;;5093780;28;20044;-78
2024/01/21 00:52:57;;;;;;;13.73;8.13;;;0.60;99.90;;;;;;5095062;28;20101;-79
2024/01/21 00:55:23;;;;;;;12.63;7.63;;;0.60;99.90;;;;;;5094801;28;20076;-79
2024/01/21 00:57:49;;;;;;;13.73;8.77;;;0.60;99.90;;;;;;5094950;28;20155;-79
2024/01/21 01:00:15;;;;;;;13.67;8.47;;;0.60;99.90;;;;;;5094741;28;20044;-78
2024/01/21 01:02:41;;;;;;;13.10;7.45;;;0.60;99.90;;;;;;5094802;28;20040;-79
2024/01/21 01:05:07;;;;;;;14.53;8.30;;;0.60;99.90;;;;;;5076533;28;20048;-79
2024/01/21 01:07:33;;;;;;;14.20;7.93;;;0.60;99.90;;;;;;5094615;28;20059;-78
2024/01/21 01:09:59;;;;;;;15.93;7.80;;;0.60;99.90;;;;;;5094709;28;20052;-79
2024/01/21 01:12:25;;;;;;;12.17;8.17;;;0.60;99.90;;;;;;5094540;28;20051;-78
2024/01/21 01:14:50;;;;;;;10.37;6.80;;;0.70;99.90;;;;;;5094762;28;20434;-79
2024/01/21 01:17:16;;;;;;;11.00;6.70;;;0.60;99.90;;;;;;5094666;28;20489;-78
2024/01/21 01:19:42;;;;;;;12.33;7.10;;;0.70;99.90;;;;;;5094237;28;20043;-79
2024/01/21 01:22:09;;;;;;;11.57;6.27;;;0.70;99.90;;;;;;5094238;28;20043;-79
2024/01/21 01:24:35;;;;;;;10.95;7.10;;;0.80;99.90;;;;;;5094162;28;20566;-79
2024/01/21 01:27:01;;;;;;;11.00;7.03;;;0.70;99.90;;;;;;5093483;28;20079;-79
2024/01/21 01:29:26;;;;;;;11.30;6.80;;;0.70;99.90;;;;;;5094203;28;20059;-79
2024/01/21 01:31:52;;;;;;;11.83;6.47;;;0.80;99.90;;;;;;5094298;28;20478;-78
2024/01/21 01:34:18;;;;;;;13.60;6.93;;;0.80;99.90;;;;;;5094127;28;20051;-78
2024/01/21 01:36:43;;;;;;;11.83;6.53;;;0.80;99.90;;;;;;5094238;28;20048;-78
2024/01/21 01:39:09;;;;;;;10.10;5.83;;;0.80;99.90;;;;;;5094402;28;20079;-79
2024/01/21 01:41:35;;;;;;;12.83;6.70;;;0.90;99.90;;;;;;5093974;28;20044;-79
2024/01/21 01:44:02;;;;;;;10.50;6.57;;;0.90;99.90;;;;;;5093939;28;20043;-79
2024/01/21 01:46:28;;;;;;;9.95;6.13;;;0.90;99.90;;;;;;5093622;28;20058;-79
2024/01/21 01:48:54;;;;;;;12.60;6.37;;;0.90;99.90;;;;;;5093987;28;20048;-79
2024/01/21 01:51:20;;;;;;;13.65;6.10;;;0.90;99.90;;;;;;5093857;28;20048;-78
2024/01/21 01:53:47;;;;;;;11.43;6.43;;;0.90;99.90;;;;;;5093910;28;20124;-79
2024/01/21 01:56:12;;;;;;;12.43;6.63;;;0.90;99.90;;;;;;5094022;28;20123;-79
2024/01/21 01:58:40;;;;;;;13.67;6.73;;;0.90;99.90;;;;;;5093664;28;20627;-79
2024/01/21 02:01:07;;;;;;;10.10;6.35;;;0.90;99.90;;;;;;5093803;28;20055;-78
2024/01/21 02:03:33;;;;;;;9.98;6.05;;;1.00;99.90;;;;;;5093276;28;20056;-78
2024/01/21 02:05:58;;;;;;;11.57;5.63;;;0.80;99.90;;;;;;5093997;28;20089;-78
2024/01/21 02:08:24;;;;;;;12.00;6.60;;;1.00;99.90;;;;;;5093646;28;20051;-78
2024/01/21 02:10:50;;;;;;;12.13;6.83;;;1.00;99.90;;;;;;5093680;28;20515;-78
2024/01/21 02:13:16;;;;;;;9.85;6.53;;;1.00;99.90;;;;;;5093601;28;20055;-78
2024/01/21 02:15:42;;;;;;;11.70;6.67;;;0.90;99.90;;;;;;5093442;28;20174;-78
2024/01/21 02:18:08;;;;;;;11.43;6.90;;;0.90;99.90;;;;;;5093496;28;20044;-79
2024/01/21 02:20:35;;;;;;;13.02;7.43;;;0.90;99.90;;;;;;5092162;28;20052;-78
2024/01/21 02:23:02;;;;;;;11.90;6.22;;;0.90;99.90;;;;;;5093541;28;20048;-78
2024/01/21 02:25:27;;;;;;;10.82;6.32;;;0.90;99.90;;;;;;5091943;28;20040;-78
2024/01/21 02:27:53;;;;;;;10.23;5.80;;;0.90;99.90;;;;;;5093806;28;20043;-78
2024/01/21 02:30:19;;;;;;;10.73;6.33;;;0.90;99.90;;;;;;5093176;28;20485;-78
2024/01/21 02:32:44;;;;;;;12.20;6.27;;;0.90;99.90;;;;;;5091146;28;20097;-78
2024/01/21 02:35:10;;;;;;;10.73;6.40;;;0.90;99.90;;;;;;5091913;28;20131;-78
2024/01/21 02:37:36;;;;;;;10.23;5.67;;;1.00;99.90;;;;;;5093288;28;20052;-78
2024/01/21 02:40:02;;;;;;;10.50;6.43;;;0.90;99.90;;;;;;5093539;28;20043;-78
2024/01/21 02:42:28;;;;;;;9.93;6.18;;;0.90;99.90;;;;;;5093081;28;20052;-78
2024/01/21 02:44:57;;;;;;;9.80;6.27;;;0.90;99.90;;;;;;5093164;28;20067;-78
2024/01/21 02:47:24;;;;;;;10.15;5.85;;;0.90;99.90;;;;;;5093275;28;20055;-78
2024/01/21 02:49:50;;;;;;;11.85;6.57;;;0.90;99.90;;;;;;5093383;28;20113;-78
2024/01/21 02:52:15;;;;;;;11.83;6.70;;;1.00;99.90;;;;;;5093221;28;20493;-78
2024/01/21 02:54:41;;;;;;;10.57;5.90;;;1.00;99.90;;;;;;5092061;28;20534;-78
2024/01/21 02:57:07;;;;;;;10.30;6.20;;;1.00;99.90;;;;;;5094566;28;20389;-78
2024/01/21 02:59:32;;;;;;;10.33;6.07;;;1.00;99.90;;;;;;5097225;28;20055;-78
2024/01/21 03:01:58;;;;;;;9.90;5.63;;;1.00;99.90;;;;;;5097437;28;20044;-78
2024/01/21 03:04:24;;;;;;;9.57;5.90;;;1.00;99.90;;;;;;5096759;28;20098;-78
2024/01/21 03:06:51;;;;;;;12.50;6.25;;;1.00;99.90;;;;;;5095625;28;20048;-78
2024/01/21 03:09:16;;;;;;;10.70;5.87;;;1.00;99.90;;;;;;5097089;28;20047;-78
2024/01/21 03:11:42;;;;;;;8.60;5.33;;;1.10;99.90;;;;;;5096846;28;20055;-78
2024/01/21 03:14:08;;;;;;;10.03;5.63;;;1.00;99.90;;;;;;5095857;28;20123;-78
2024/01/21 03:16:33;;;;;;;8.40;5.07;;;1.10;99.90;;;;;;5096834;28;20461;-78
2024/01/21 03:18:59;;;;;;;9.53;5.43;;;1.10;99.90;;;;;;5096018;28;20047;-78
2024/01/21 03:21:25;;;;;;;9.70;5.53;;;1.10;99.90;;;;;;5096983;28;20155;-78
2024/01/21 03:23:51;;;;;;;11.37;5.70;;;1.00;99.90;;;;;;5096583;28;20044;-78
2024/01/21 03:26:16;;;;;;;8.27;5.13;;;1.00;99.90;;;;;;5095707;28;20393;-78
2024/01/21 03:28:42;;;;;;;9.10;5.10;;;1.00;99.90;;;;;;5095648;28;20055;-78
2024/01/21 03:31:08;;;;;;;8.40;5.00;;;1.00;99.90;;;;;;5095760;28;20052;-78
2024/01/21 03:33:33;;;;;;;8.27;4.63;;;1.00;99.90;;;;;;5096408;28;20127;-77
2024/01/21 03:36:01;;;;;;;8.33;4.57;;;1.00;99.90;;;;;;5096327;28;20096;-78
2024/01/21 03:38:26;;;;;;;8.07;4.43;;;1.00;99.90;;;;;;5096569;28;20044;-78
2024/01/21 03:40:52;;;;;;;9.23;4.63;;;1.10;99.90;;;;;;5096408;28;20051;-78
2024/01/21 03:43:18;;;;;;;9.00;4.67;;;1.10;99.90;;;;;;5078438;28;20043;-78
2024/01/21 03:45:44;;;;;;;8.23;4.63;;;1.10;99.90;;;;;;5096126;28;20123;-77
2024/01/21 03:48:09;;;;;;;9.50;4.40;;;1.20;99.90;;;;;;5096460;28;20177;-78
2024/01/21 03:50:35;;;;;;;9.50;4.43;;;1.20;99.90;;;;;;5095834;28;20132;-77
2024/01/21 03:53:01;;;;;;;7.67;3.70;;;1.10;99.90;;;;;;5096411;28;20059;-77
2024/01/21 03:55:26;;;;;;;7.77;4.23;;;1.10;99.90;;;;;;5096342;28;20044;-78
2024/01/21 03:57:52;;;;;;;9.27;4.63;;;1.10;99.90;;;;;;5096006;28;20139;-78
2024/01/21 04:00:18;;;;;;;8.63;4.73;;;1.10;99.90;;;;;;5094959;28;20051;-78
2024/01/21 04:02:43;;;;;;;7.57;4.60;;;1.10;99.90;;;;;;5095991;28;20101;-77
2024/01/21 04:05:09;;;;;;;7.13;4.03;;;1.10;99.90;;;;;;5096351;28;20059;-78
2024/01/21 04:07:35;;;;;;;8.07;4.07;;;1.10;99.90;;;;;;5095811;28;20052;-77
2024/01/21 04:10:02;;;;;;;7.20;4.30;;;1.10;99.90;;;;;;5093992;28;20101;-77
2024/01/21 04:12:28;;;;;;;7.78;4.45;;;1.10;99.90;;;;;;5095652;28;20532;-78
2024/01/21 04:14:54;;;;;;;7.97;4.20;;;1.20;99.90;;;;;;5095781;28;20056;-78
2024/01/21 04:17:21;;;;;;;8.27;4.40;;;1.10;99.90;;;;;;5096069;28;20432;-79
2024/01/21 04:19:47;;;;;;;7.68;4.22;;;1.20;99.90;;;;;;5095626;28;20097;-78
2024/01/21 04:22:12;;;;;;;8.30;4.80;;;1.20;99.90;;;;;;5095852;28;20044;-78
2024/01/21 04:24:38;;;;;;;8.63;4.60;;;1.20;99.90;;;;;;5095427;28;20040;-78
2024/01/21 04:27:04;;;;;;;8.07;4.43;;;1.20;99.90;;;;;;5095689;28;20044;-79
2024/01/21 04:29:30;;;;;;;8.93;4.60;;;1.20;99.90;;;;;;5095657;28;20496;-78
2024/01/21 04:31:56;;;;;;;7.27;4.17;;;1.20;99.90;;;;;;5095310;28;20579;-78
2024/01/21 04:34:21;;;;;;;7.77;4.80;;;1.10;99.90;;;;;;5094530;28;20040;-78
2024/01/21 04:36:48;;;;;;;7.10;3.97;;;1.20;99.90;;;;;;5095232;28;20044;-78
2024/01/21 04:39:18;;;;;;;8.73;4.70;;;1.20;99.90;;;;;;5095531;28;20067;-78
2024/01/21 04:41:44;;;;;;;8.02;4.65;;;1.20;99.90;;;;;;5095006;28;20040;-78
2024/01/21 04:44:10;;;;;;;8.67;3.97;;;1.10;99.90;;;;;;5095204;28;20036;-78
2024/01/21 04:46:35;;;;;;;8.53;4.30;;;1.10;99.90;;;;;;5095271;28;20058;-79
2024/01/21 04:49:02;;;;;;;7.77;4.23;;;1.10;99.90;;;;;;5094714;28;20044;-78
2024/01/21 04:51:27;;;;;;;8.07;4.45;;;1.10;99.90;;;;;;5095259;28;20090;-79
2024/01/21 04:53:53;;;;;;;7.47;4.07;;;1.10;99.90;;;;;;5095234;28;20071;-78
2024/01/21 04:56:19;;;;;;;8.13;4.47;;;1.10;99.90;;;;;;5094819;28;20051;-79
2024/01/21 04:58:46;;;;;;;7.00;4.03;;;1.10;99.90;;;;;;5094598;28;20562;-78
2024/01/21 05:01:13;;;;;;;9.23;4.55;;;1.10;99.90;;;;;;5095266;28;20052;-78
2024/01/21 05:03:38;;;;;;;7.72;4.00;;;1.00;99.90;;;;;;5094772;28;20090;-78
2024/01/21 05:06:05;;;;;;;8.87;4.77;;;1.00;99.90;;;;;;5094700;28;20091;-78
2024/01/21 05:08:30;;;;;;;9.23;4.63;;;1.10;99.90;;;;;;5094832;28;20105;-78
2024/01/21 05:10:57;;;;;;;8.03;4.27;;;1.10;99.90;;;;;;5094653;28;20052;-78
2024/01/21 05:13:22;;;;;;;8.32;4.55;;;1.10;99.90;;;;;;5094737;28;20055;-78
2024/01/21 05:15:48;;;;;;;8.20;4.20;;;1.10;99.90;;;;;;5094527;28;20036;-78
2024/01/21 05:18:14;;;;;;;8.17;4.27;;;1.10;99.90;;;;;;5094584;28;20087;-78
2024/01/21 05:20:40;;;;;;;8.30;4.70;;;1.10;99.90;;;;;;5094311;28;20101;-78
2024/01/21 05:23:05;;;;;;;7.60;4.30;;;1.10;99.90;;;;;;5094378;28;20047;-79
2024/01/21 05:25:31;;;;;;;7.83;4.53;;;1.10;99.90;;;;;;5093250;28;20036;-78
2024/01/21 05:27:57;;;;;;;7.57;4.03;;;1.10;99.90;;;;;;5093995;28;20102;-78
2024/01/21 05:30:22;;;;;;;7.40;3.70;;;1.10;99.90;;;;;;5094483;28;20044;-78
2024/01/21 05:32:50;;;;;;;8.27;4.07;;;1.20;99.90;;;;;;5093905;28;20063;-78
2024/01/21 05:35:17;;;;;;;7.45;4.40;;;1.20;99.90;;;;;;5094270;28;20051;-78
2024/01/21 05:37:43;;;;;;;8.80;3.88;;;1.20;99.90;;;;;;5094364;28;20051;-78
2024/01/21 05:40:09;;;;;;;7.43;4.17;;;1.20;99.90;;;;;;5094330;28;20502;-78
2024/01/21 05:42:34;;;;;;;7.07;3.90;;;1.20;99.90;;;;;;5094307;28;20182;-78
2024/01/21 05:45:00;;;;;;;8.03;3.87;;;1.20;99.90;;;;;;5093651;28;20127;-78
2024/01/21 05:47:26;;;;;;;6.97;3.87;;;1.20;99.90;;;;;;5094124;28;20117;-78
2024/01/21 05:49:51;;;;;;;8.03;4.10;;;1.20;99.90;;;;;;5093969;28;20043;-78
2024/01/21 05:52:17;;;;;;;6.50;3.87;;;1.30;99.90;;;;;;5094089;28;20079;-78
2024/01/21 05:54:43;;;;;;;8.80;4.00;;;1.20;99.90;;;;;;5093839;28;20044;-78
2024/01/21 05:57:09;;;;;;;7.77;3.70;;;1.20;99.90;;;;;;5093053;28;20105;-78
2024/01/21 05:59:35;;;;;;;7.97;4.13;;;1.20;99.90;;;;;;5093946;28;20558;-78
2024/01/21 06:02:01;;;;;;;8.70;4.27;;;1.30;99.90;;;;;;5092547;28;20048;-78
2024/01/21 06:04:26;;;;;;;7.60;3.90;;;1.20;99.90;;;;;;5093529;28;20063;-78
2024/01/21 06:06:52;;;;;;;6.57;3.90;;;1.30;99.90;;;;;;5093617;28;20083;-78
2024/01/21 06:09:18;;;;;;;6.80;3.57;;;1.30;99.90;;;;;;5093699;28;20130;-78
2024/01/21 06:11:44;;;;;;;7.93;3.57;;;1.30;99.90;;;;;;5093807;28;20044;-79
2024/01/21 06:14:10;;;;;;;7.17;3.40;;;1.20;99.90;;;;;;5093541;28;20478;-78
2024/01/21 06:16:36;;;;;;;6.88;4.03;;;1.20;99.90;;;;;;5093524;28;20615;-79
2024/01/21 06:19:03;;;;;;;7.07;4.00;;;1.20;99.90;;;;;;5092491;28;20052;-78
2024/01/21 06:21:29;;;;;;;7.60;4.15;;;1.20;99.90;;;;;;5093571;28;20096;-79
2024/01/21 06:23:55;;;;;;;6.22;3.58;;;1.20;99.90;;;;;;5093299;28;20131;-78
2024/01/21 06:26:22;;;;;;;7.57;3.65;;;1.20;99.90;;;;;;5093739;28;20190;-79
2024/01/21 06:28:49;;;;;;;8.20;4.03;;;1.20;99.90;;;;;;5092576;28;20101;-78
2024/01/21 06:31:14;;;;;;;7.97;4.28;;;1.30;99.90;;;;;;5092645;28;20048;-78
2024/01/21 06:33:41;;;;;;;8.20;3.87;;;1.30;99.90;;;;;;5093334;28;20401;-78
2024/01/21 06:36:07;;;;;;;6.70;4.28;;;1.20;99.90;;;;;;5093236;28;20043;-78
2024/01/21 06:38:33;;;;;;;7.03;4.20;;;1.20;99.90;;;;;;5093364;28;20040;-79
2024/01/21 06:40:59;;;;;;;7.03;3.70;;;1.20;99.90;;;;;;5093102;28;20086;-79
2024/01/21 06:43:24;;;;;;;7.60;4.40;;;1.30;99.90;;;;;;5093280;28;20036;-79
2024/01/21 06:45:50;;;;;;;8.27;4.40;;;1.20;99.90;;;;;;5092984;28;20050;-78
2024/01/21 06:48:16;;;;;;;6.63;3.83;;;1.20;99.90;;;;;;5093121;28;20048;-78
2024/01/21 06:50:41;;;;;;;7.47;3.90;;;1.20;99.90;;;;;;5093203;28;20088;-78
2024/01/21 06:53:07;;;;;;;8.23;4.10;;;1.30;99.90;;;;;;5093065;28;20405;-78
2024/01/21 06:55:33;;;;;;;8.33;3.90;;;1.30;99.90;;;;;;5092894;28;20510;-78
2024/01/21 06:57:59;;;;;;;8.43;4.10;;;1.30;99.90;;;;;;5092897;28;20044;-78
2024/01/21 07:00:24;;;;;;;7.17;4.20;;;1.30;99.90;;;;;;5093205;28;20059;-79
2024/01/21 07:02:50;;;;;;;7.20;4.17;;;1.30;99.90;;;;;;5093367;28;20553;-79
2024/01/21 07:05:16;;;;;;;8.43;4.33;;;1.30;99.90;;;;;;5093020;28;20066;-78
2024/01/21 07:07:42;;;;;;;8.50;4.33;;;1.40;99.90;;;;;;5093138;28;20102;-80
2024/01/21 07:10:08;;;;;;;8.17;3.97;;;1.40;99.90;;;;;;5091736;28;20189;-78
2024/01/21 07:12:34;;;;;;;9.53;4.33;;;1.40;99.90;;;;;;5092623;28;20540;-79
2024/01/21 07:15:00;;;;;;;10.60;4.15;;;1.50;99.90;;;;;;5092531;28;20047;-78
2024/01/21 07:17:26;;;;;;;10.00;4.27;;;1.50;99.90;;;;;;5093180;28;20044;-79
2024/01/21 07:19:53;;;;;;;7.90;4.43;;;1.60;99.90;;;;;;5092654;28;20044;-78
2024/01/21 07:22:20;;;;;;;8.05;4.35;;;1.60;99.90;;;;;;5093058;28;20382;-78
2024/01/21 07:24:45;;;;;;;8.55;4.63;;;1.60;99.90;;;;;;5092870;28;20088;-79
2024/01/21 07:27:12;;;;;;;9.87;5.20;;;1.60;99.90;;;;;;5092742;28;20047;-78
2024/01/21 07:29:38;;;;;;;7.78;4.80;;;1.70;99.90;;;;;;5091777;28;20393;-78
2024/01/21 07:32:04;;;;;;;7.50;4.40;;;1.70;99.90;;;;;;5091524;28;20101;-78
2024/01/21 07:34:30;;;;;;;8.97;4.97;;;1.70;99.90;;;;;;5092864;28;20040;-78
2024/01/21 07:36:56;;;;;;;8.13;4.73;;;1.60;99.90;;;;;;5092786;28;20289;-79
2024/01/21 07:39:21;;;;;;;8.47;4.80;;;1.70;99.90;;;;;;5092428;28;20127;-78
2024/01/21 07:41:47;;;;;;;8.40;4.90;;;1.70;99.90;;;;;;5092951;28;20048;-79
2024/01/21 07:44:13;;;;;;;9.77;5.10;;;1.70;99.90;;;;;;5095408;28;20063;-78
2024/01/21 07:46:39;;;;;;;9.70;5.27;;;1.70;99.90;;;;;;5096521;28;20127;-79
2024/01/21 07:49:04;;;;;;;9.77;5.53;;;1.70;99.90;;;;;;5096196;28;20293;-78
2024/01/21 07:51:30;;;;;;;9.03;5.17;;;1.70;99.90;;;;;;5096614;28;20047;-78
2024/01/21 07:53:56;;;;;;;8.57;4.60;;;1.70;99.90;;;;;;5096540;28;20108;-78
2024/01/21 07:56:22;;;;;;;8.60;4.47;;;1.70;99.90;;;;;;5096164;28;20040;-79
2024/01/21 07:58:47;;;;;;;9.50;5.28;;;1.70;99.90;;;;;;5096493;28;20047;-79
2024/01/21 08:01:13;;;;;;;9.63;4.93;;;1.70;99.90;;;;;;5095027;28;20205;-78
2024/01/21 08:03:39;;;;;;;8.60;5.43;;;1.70;99.90;;;;;;5094925;28;20571;-78
2024/01/21 08:06:09;;;;;;;12.82;5.38;;;1.70;99.90;;;;;;5096021;28;20056;-78
2024/01/21 08:08:35;;;;;;;8.93;5.10;;;1.70;99.90;;;;;;5096102;28;20062;-79
2024/01/21 08:11:00;;;;;;;9.13;5.43;;;1.70;99.90;;;;;;5096102;28;20047;-79
2024/01/21 08:13:27;;;;;;;9.30;5.40;;;1.70;99.90;;;;;;5095727;28;20044;-79
2024/01/21 08:15:52;;;;;;;11.27;5.00;;;1.80;99.90;;;;;;5094486;28;20554;-79
2024/01/21 08:18:19;;;;;;;9.50;5.33;;;1.90;99.90;;;;;;5095692;28;20044;-78
2024/01/21 08:20:45;;;;;;;8.02;4.85;;;1.80;99.90;;;;;;5095889;28;20119;-79
2024/01/21 08:23:11;;;;;;;11.73;5.40;;;1.80;99.90;;;;;;5095589;28;20496;-78
2024/01/21 08:25:37;;;;;;;10.37;5.83;;;1.80;99.90;;;;;;5095671;28;20051;-79
2024/01/21 08:28:03;;;;;;;9.07;5.90;;;1.90;99.90;;;;;;5095687;28;20048;-79
2024/01/21 08:30:29;;;;;;;8.85;4.93;;;1.80;99.90;;;;;;5095598;28;20052;-79
2024/01/21 08:32:54;;;;;;;9.32;5.45;;;1.90;99.90;;;;;;5095675;28;20048;-79
2024/01/21 08:35:20;;;;;;;9.83;5.50;;;1.90;99.90;;;;;;5095405;28;20451;-78
2024/01/21 08:37:47;;;;;;;8.80;5.20;;;1.80;99.90;;;;;;5095312;28;20052;-78
2024/01/21 08:40:13;;;;;;;9.93;6.15;;;1.90;99.90;;;;;;5095351;28;20100;-79
2024/01/21 08:42:39;;;;;;;9.80;5.28;;;1.90;99.90;;;;;;5095803;28;20127;-79
2024/01/21 08:45:06;;;;;;;9.73;5.50;;;1.90;99.90;;;;;;5094126;28;20516;-79
2024/01/21 08:47:31;;;;;;;12.75;6.10;;;1.90;99.90;;;;;;5095429;28;20094;-79
2024/01/21 08:49:58;;;;;;;9.53;5.97;;;1.90;99.90;;;;;;5095277;28;20132;-79
2024/01/21 08:52:23;;;;;;;9.68;5.85;;;1.90;99.90;;;;;;5095025;28;20039;-79
2024/01/21 08:54:49;;;;;;;9.67;6.00;;;1.90;99.90;;;;;;5094803;28;20043;-79
2024/01/21 08:57:15;;;;;;;12.53;6.73;;;1.90;99.90;;;;;;5095094;28;20509;-79
2024/01/21 08:59:41;;;;;;;10.07;5.83;;;1.90;99.90;;;;;;5095116;28;20131;-79
2024/01/21 09:02:07;;;;;;;10.47;6.13;;;1.90;99.90;;;;;;5094807;28;20052;-80
2024/01/21 09:04:32;;;;;;;9.10;5.67;;;1.90;99.90;;;;;;5094455;28;20066;-79
2024/01/21 09:06:58;;;;;;;10.13;5.87;;;1.90;99.90;;;;;;5094959;28;20044;-80
2024/01/21 09:09:24;;;;;;;10.43;5.60;;;1.90;99.90;;;;;;5094575;28;20437;-80
2024/01/21 09:11:51;;;;;;;9.43;5.73;;;2.00;99.90;;;;;;5094908;28;20044;-80
2024/01/21 09:14:17;;;;;;;9.10;6.05;;;2.00;99.90;;;;;;5093495;28;20040;-80
2024/01/21 09:16:43;;;;;;;8.82;5.40;;;2.00;99.90;;;;;;5094745;28;20497;-80
2024/01/21 09:19:09;;;;;;;9.83;5.83;;;2.00;99.90;;;;;;5094427;28;20048;-81
2024/01/21 09:21:36;;;;;;;9.25;5.78;;;2.10;99.90;;;;;;5095019;28;20096;-81
2024/01/21 09:24:04;;;;;;;13.00;6.80;;;2.10;99.90;;;;;;5094318;28;20052;-81
2024/01/21 09:26:31;;;;;;;9.45;5.93;;;2.20;99.90;;;;;;5093423;28;20510;-80
2024/01/21 09:28:57;;;;;;;10.07;5.85;;;2.20;99.90;;;;;;5094579;28;20051;-81
2024/01/21 09:31:22;;;;;;;10.13;5.93;;;2.20;99.90;;;;;;5094316;28;20051;-81
2024/01/21 09:33:48;;;;;;;20.00;6.30;;;2.30;99.90;;;;;;5094512;28;20335;-81
2024/01/21 09:36:15;;;;;;;10.67;6.03;;;2.30;99.90;;;;;;5094270;28;20044;-81
2024/01/21 09:38:41;;;;;;;9.93;5.97;;;2.30;99.90;;;;;;5094421;28;20067;-82
2024/01/21 09:41:26;;;;;;;10.35;5.75;;;2.40;99.90;;;;;;5094327;28;20071;-82
2024/01/21 09:43:52;;;;;;;10.27;6.07;;;2.40;99.90;;;;;;5094140;28;20055;-82
2024/01/21 09:46:17;;;;;;;9.87;5.77;;;2.40;99.90;;;;;;5093976;28;20040;-81
2024/01/21 09:48:44;;;;;;;11.80;6.67;;;2.50;99.90;;;;;;5094125;28;20043;-82
2024/01/21 09:51:10;;;;;;;13.77;6.43;;;2.50;99.90;;;;;;5094237;28;20052;-82
2024/01/21 09:53:36;;;;;;;9.30;6.00;;;2.50;99.90;;;;;;5093914;28;20052;-81
2024/01/21 09:56:08;;;;;;;8.87;5.40;;;2.50;99.90;;;;;;5094262;28;20501;-82
2024/01/21 09:58:49;;;;;;;10.52;6.47;;;2.50;99.90;;;;;;5093755;28;20047;-82
2024/01/21 10:01:16;;;;;;;11.15;6.40;;;2.60;99.90;;;;;;5093967;28;20055;-78
2024/01/21 10:03:42;;;;;;;14.45;6.35;;;2.60;99.90;;;;;;5093492;28;20509;-83
2024/01/21 10:06:08;;;;;;;9.82;6.22;;;2.60;99.90;;;;;;5092203;28;20044;-83
2024/01/21 10:08:42;;;;;;;8.90;5.95;;;;;;;;;;5092489;28;20050;-83
2024/01/21 10:11:08;;;;;;;10.57;7.47;;;2.70;99.90;;;;;;5093749;28;20055;-83
2024/01/21 10:13:38;;;;;;;11.05;6.20;;;2.70;99.90;;;;;;5093621;28;20045;-82
2024/01/21 10:16:07;;;;;;;12.73;7.10;;;2.80;99.90;;;;;;5093955;28;20044;-82
2024/01/21 10:18:34;;;;;;;10.57;6.72;;;2.80;99.90;;;;;;5093160;28;20401;-82
2024/01/21 10:21:06;;;;;;;18.52;10.35;;;2.80;99.90;;;;;;5093689;28;20401;-81
2024/01/21 10:23:33;;;;;;;13.27;8.35;;;2.90;99.90;;;;;;5093544;28;20044;-81
2024/01/21 10:25:59;;;;;;;15.90;7.05;;;2.90;99.90;;;;;;5093494;28;20475;-82
2024/01/21 10:28:26;;;;;;;12.52;7.90;;;2.90;99.90;;;;;;5093354;28;20131;-81
2024/01/21 10:30:52;;;;;;;11.40;7.47;;;2.90;99.90;;;;;;5093545;28;20051;-81
2024/01/21 10:33:17;;;;;;;13.57;7.30;;;2.90;99.90;;;;;;5092457;28;20113;-81
2024/01/21 10:35:43;;;;;;;12.07;7.33;;;3.00;99.90;;;;;;5092050;28;20038;-80
2024/01/21 10:38:12;;;;;;;14.00;7.47;;;3.00;99.90;;;;;;5093500;28;20090;-81
2024/01/21 10:40:46;;;;;;;11.63;7.75;;;3.00;99.90;;;;;;5092867;28;20565;-80
2024/01/21 10:43:15;;;;;;;12.77;7.53;;;3.00;99.90;;;;;;5093362;28;20055;-81
2024/01/21 10:45:45;;;;;;;11.15;7.35;;;3.10;99.90;;;;;;5093077;28;20114;-80
2024/01/21 10:48:15;;;;;;;13.48;8.23;;;3.10;99.90;;;;;;5093345;28;20044;-80
2024/01/21 10:50:42;;;;;;;11.00;7.20;;;3.10;99.90;;;;;;5093260;28;20052;-80
2024/01/21 10:53:12;;;;;;;12.32;7.85;;;3.20;99.90;;;;;;5093281;28;20050;-81
2024/01/21 10:55:40;;;;;;;12.32;7.05;;;3.20;99.90;;;;;;5092946;28;20110;-81
2024/01/21 10:58:07;;;;;;;11.90;7.57;;;3.30;99.90;;;;;;5093206;28;20056;-81
2024/01/21 11:00:35;;;;;;;12.75;7.88;;;3.30;99.90;;;;;;5091824;28;20051;-80
2024/01/21 11:03:24;;;;;;;14.57;7.57;;;3.40;99.90;;;;;;5091931;28;20059;-80
2024/01/21 11:05:57;;;;;;;13.73;7.88;;;3.40;99.90;;;;;;5092822;28;20494;-81
2024/01/21 11:08:23;;;;;;;13.93;8.52;;;3.50;99.90;;;;;;5093030;28;20071;-76
2024/01/21 11:11:20;;;;;;;13.02;7.70;;;3.50;99.90;;;;;;5093010;28;20052;-80
2024/01/21 11:13:49;;;;;;;;;;;3.50;99.90;;;;;;5093331;28;20063;-81
2024/01/21 11:16:28;;;;;;;12.57;7.90;;;3.50;99.90;;;;;;5093082;28;19920;-80
2024/01/21 11:18:57;;;;;;;22.75;11.93;;;3.50;99.90;;;;;;5085490;28;20113;-83
2024/01/21 11:21:24;;;;;;;13.90;8.73;;;3.50;99.90;;;;;;5078124;28;20041;-78
2024/01/21 11:24:05;;;;;;;22.30;12.05;;;3.50;99.90;;;;;;5094954;28;20482;-84
2024/01/21 11:26:34;;;;;;;11.75;7.72;;;3.50;99.90;;;;;;5086125;28;20417;-80
2024/01/21 11:29:01;;;;;;;12.40;7.63;;;3.50;99.90;;;;;;5094923;28;20128;-81
2024/01/21 11:31:34;;;;;;;11.90;7.10;;;3.50;99.90;;;;;;5096503;28;20124;-79
2024/01/21 11:34:12;;;;;;;11.75;7.22;;;3.60;99.90;;;;;;5096914;28;20086;-80
2024/01/21 11:36:38;;;;;;;12.82;7.80;;;3.60;99.90;;;;;;5096612;28;20051;-80
2024/01/21 11:39:06;;;;;;;13.03;8.20;;;3.60;99.90;;;;;;5097004;28;20043;-80
2024/01/21 11:41:41;;;;;;;11.75;8.05;;;3.60;99.90;;;;;;5095242;28;20055;-79
2024/01/21 11:44:07;;;;;;;;;;;3.60;99.90;;;;;;5097086;28;20097;-80
2024/01/21 11:46:33;;;;;;;12.32;8.43;;;3.50;99.90;;;;;;5096369;28;19919;-79
2024/01/21 11:49:02;;;;;;;11.70;7.13;;;3.50;99.90;;;;;;5096604;28;20051;-79
2024/01/21 11:51:28;;;;;;;13.85;8.35;;;3.50;99.90;;;;;;5096249;28;20126;-78
2024/01/21 11:53:54;;;;;;;12.53;7.77;;;3.60;99.90;;;;;;5096384;28;20048;-79
2024/01/21 11:56:19;;;;;;;14.43;8.00;;;3.60;99.90;;;;;;5096343;28;20050;-79
2024/01/21 11:58:45;;;;;;;13.13;8.27;;;3.60;99.90;;;;;;5096125;28;20039;-79
2024/01/21 12:01:11;;;;;;;12.63;7.57;;;3.50;99.90;;;;;;5095991;28;20050;-81
2024/01/21 12:03:37;;;;;;;13.40;7.63;;;3.60;99.90;;;;;;5095759;28;20047;-78
2024/01/21 12:06:04;;;;;;;14.45;8.18;;;3.50;99.90;;;;;;5096198;28;20135;-79
2024/01/21 12:08:31;;;;;;;12.65;8.57;;;3.60;99.90;;;;;;5095941;28;20048;-78
2024/01/21 12:10:56;;;;;;;12.07;7.95;;;3.60;99.90;;;;;;5096201;28;20055;-79
2024/01/21 12:13:22;;;;;;;16.07;8.13;;;3.60;99.90;;;;;;5095989;28;20554;-80
2024/01/21 12:15:51;;;;;;;13.27;7.73;;;3.60;99.90;;;;;;5095740;28;20036;-80
2024/01/21 12:18:17;;;;;;;13.77;8.40;;;3.70;99.90;;;;;;5096138;28;20040;-79
2024/01/21 12:20:43;;;;;;;15.13;8.67;;;3.70;99.90;;;;;;5095717;28;20392;-79
2024/01/21 12:23:22;;;;;;;13.20;8.25;;;3.70;99.90;;;;;;5095770;28;20127;-79
2024/01/21 12:25:48;;;;;;;15.05;8.70;;;3.70;99.90;;;;;;5093900;28;20086;-78
2024/01/21 12:28:14;;;;;;;13.65;8.20;;;3.70;99.90;;;;;;5094615;28;20047;-78
2024/01/21 12:30:40;;;;;;;14.83;8.63;;;3.80;99.90;;;;;;5094434;28;20051;-77
2024/01/21 12:33:06;;;;;;;15.10;9.83;;;3.80;99.90;;;;;;5095523;28;20048;-78
2024/01/21 12:35:32;;;;;;;13.43;9.23;;;3.80;99.90;;;;;;5095497;28;20036;-76
2024/01/21 12:37:59;;;;;;;13.60;8.98;;;3.80;99.90;;;;;;5095502;28;20040;-77
2024/01/21 12:40:26;;;;;;;14.88;8.77;;;3.80;99.90;;;;;;5095678;28;20393;-78
2024/01/21 12:42:52;;;;;;;15.20;8.55;;;3.80;99.90;;;;;;5095342;28;20040;-77
2024/01/21 12:45:18;;;;;;;17.35;10.27;;;3.80;99.90;;;;;;5095266;28;20131;-78
2024/01/21 12:47:44;;;;;;;14.77;9.50;;;3.90;99.90;;;;;;5095054;28;20080;-77
2024/01/21 12:50:10;;;;;;;17.85;9.57;;;3.90;99.90;;;;;;5095203;28;20109;-78